Terminal Aerodrome Forecast
Issued by NWS Pueblo, CO

Home | Current Version | Previous Version | Text Only | Print | Product List | Glossary On
Versions: 1 2 3 4 5 6 7 8 9 10 11 12 13 14 15 16 17 18 19 20 21 22 23 24 25 26 27 28 29 30 31 32 33 34 35 36 37 38 39 40 41 42 43 44 45 46 47 48 49
000
FTUS45 KPUB 271137
TAFCOS
TAF
KCOS 271137Z 2712/2812 VRB06KT P6SM SCT010 BKN110
     FM271700 16010KT P6SM SCT100 BKN150
     FM272000 18012KT P6SM VCTS SCT060CB BKN100
     FM280200 35012KT P6SM VCTS SCT060CB BKN100
     FM280400 34008KT P6SM SCT060 BKN100=

USA.gov is the U.S. government's official web portal to all federal, state and local government web resources and services.